Time;durP1;ratioP1;P1;durP2;ratioP2;P2;SDS_P1;SDS_P2;PMS_P1;PMS_P2;Temp;Humidity;BMP_temperature;BMP_pressure;BME280_temperature;BME280_humidity;BME280_pressure;Samples;Min_cycle;Max_cycle;Signal;HPM_P1;HPM_P2
2021/12/07 00:00:51;;;;;;;0.00;0.00;;;0.90;99.90;;;;;;5032363;28;20026;-66
2021/12/07 00:03:17;;;;;;;0.00;0.00;;;0.90;99.90;;;;;;5033204;28;20061;-66
2021/12/07 00:05:43;;;;;;;0.00;0.00;;;0.90;99.90;;;;;;5032736;28;20033;-66
2021/12/07 00:08:08;;;;;;;0.00;0.00;;;0.90;99.90;;;;;;5032857;28;20028;-66
2021/12/07 00:10:35;;;;;;;0.00;0.00;;;0.80;99.90;;;;;;5032200;28;20550;-66
2021/12/07 00:13:01;;;;;;;0.00;0.00;;;0.80;99.90;;;;;;5047158;28;20106;-65
2021/12/07 00:15:30;;;;;;;0.00;0.00;;;0.80;99.90;;;;;;5037954;28;20041;-66
2021/12/07 00:17:55;;;;;;;0.00;0.00;;;0.80;99.90;;;;;;5032900;28;20025;-66
2021/12/07 00:20:22;;;;;;;0.00;0.00;;;0.80;99.90;;;;;;5031779;28;20044;-66
2021/12/07 00:22:51;;;;;;;0.00;0.00;;;0.80;99.90;;;;;;5032922;28;20035;-65
2021/12/07 00:25:16;;;;;;;0.00;0.00;;;0.80;99.90;;;;;;5032427;28;20036;-66
2021/12/07 00:27:42;;;;;;;0.00;0.00;;;0.80;99.90;;;;;;5032780;28;20104;-66
2021/12/07 00:30:10;;;;;;;0.00;0.00;;;0.80;99.90;;;;;;5031621;28;20455;-66
2021/12/07 00:32:38;;;;;;;0.00;0.00;;;0.80;99.90;;;;;;5032684;28;20040;-65
2021/12/07 00:37:36;;;;;;;0.00;0.00;;;0.80;99.90;;;;;;5032362;28;20108;-66
2021/12/07 00:40:06;;;;;;;0.00;0.00;;;0.90;99.90;;;;;;5031569;28;20041;-66
2021/12/07 00:42:32;;;;;;;0.00;0.00;;;0.90;99.90;;;;;;5032620;28;20021;-66
2021/12/07 00:44:59;;;;;;;0.00;0.00;;;0.90;99.90;;;;;;5031884;28;20040;-65
2021/12/07 00:47:24;;;;;;;0.00;0.00;;;0.90;99.90;;;;;;5032369;28;20068;-66
2021/12/07 00:49:50;;;;;;;0.00;0.00;;;0.90;99.90;;;;;;5032140;28;20107;-65
2021/12/07 00:52:16;;;;;;;0.00;0.00;;;0.90;99.90;;;;;;5031836;28;20156;-66
2021/12/07 00:54:42;;;;;;;0.00;0.00;;;1.00;99.90;;;;;;5031448;28;20467;-66
2021/12/07 00:57:07;;;;;;;0.00;0.00;;;1.00;99.90;;;;;;5032064;28;20520;-66
2021/12/07 00:59:33;;;;;;;0.00;0.00;;;1.00;99.90;;;;;;5031890;28;20153;-66
2021/12/07 01:01:58;;;;;;;0.00;0.00;;;1.00;99.90;;;;;;5031574;28;20021;-66
2021/12/07 01:04:26;;;;;;;0.00;0.00;;;1.00;99.90;;;;;;5031527;28;20112;-65
2021/12/07 01:25:37;;;;;;;;;;;1.00;99.90;;;;;;5032493;28;20121;-66
2021/12/07 01:28:14;;;;;;;0.00;0.00;;;0.90;99.90;;;;;;5030525;28;20318;-66
2021/12/07 01:30:49;;;;;;;0.00;0.00;;;0.90;99.90;;;;;;5031391;28;20483;-66
2021/12/07 01:51:48;;;;;;;0.00;0.00;;;0.90;99.90;;;;;;5034250;28;20064;-65
2021/12/07 01:59:51;;;;;;;0.00;0.00;;;0.80;99.90;;;;;;5035459;28;20033;-65
2021/12/07 02:02:19;;;;;;;0.00;0.00;;;0.80;99.90;;;;;;5034816;28;20053;-65
2021/12/07 02:04:45;;;;;;;0.00;0.00;;;0.80;99.90;;;;;;5033507;28;20448;-65
2021/12/07 02:07:11;;;;;;;0.00;0.00;;;0.80;99.90;;;;;;5035653;28;20396;-65
2021/12/07 02:09:40;;;;;;;0.00;0.00;;;0.80;99.90;;;;;;5035078;28;20034;-65
2021/12/07 02:12:07;;;;;;;0.00;0.00;;;0.80;99.90;;;;;;5034782;28;20104;-65
2021/12/07 02:14:33;;;;;;;0.00;0.00;;;0.70;99.90;;;;;;5034967;28;20029;-65
2021/12/07 02:17:03;;;;;;;0.00;0.00;;;0.80;99.90;;;;;;5035229;28;20116;-65
2021/12/07 02:19:29;;;;;;;0.00;0.00;;;0.80;99.90;;;;;;5034802;28;20034;-65
2021/12/07 02:21:57;;;;;;;0.00;0.00;;;0.80;99.90;;;;;;5034460;28;20029;-65
2021/12/07 02:24:23;;;;;;;0.00;0.00;;;0.80;99.90;;;;;;5035070;28;20098;-65
2021/12/07 02:26:48;;;;;;;0.00;0.00;;;0.80;99.90;;;;;;5034893;28;20160;-65
2021/12/07 02:29:15;;;;;;;0.00;0.00;;;0.80;99.90;;;;;;5034612;28;20620;-65
2021/12/07 02:31:41;;;;;;;0.00;0.00;;;0.80;99.90;;;;;;5034017;28;20029;-66
2021/12/07 02:34:08;;;;;;;0.00;0.00;;;0.80;99.90;;;;;;5034706;28;20034;-65
2021/12/07 02:36:35;;;;;;;0.00;0.00;;;0.70;99.90;;;;;;5034895;28;20049;-65
2021/12/07 02:39:02;;;;;;;0.00;0.00;;;0.70;99.90;;;;;;5034852;28;20037;-65
2021/12/07 02:41:27;;;;;;;0.00;0.00;;;0.70;99.90;;;;;;5033742;28;20164;-65
2021/12/07 02:43:53;;;;;;;0.00;0.00;;;0.70;99.90;;;;;;5034768;28;20473;-65
2021/12/07 02:46:18;;;;;;;0.00;0.00;;;0.70;99.90;;;;;;5033342;28;20064;-65
2021/12/07 02:48:44;;;;;;;0.00;0.00;;;0.70;99.90;;;;;;5035934;28;20029;-65
2021/12/07 02:51:10;;;;;;;0.00;0.00;;;0.70;99.90;;;;;;5037002;28;20029;-65
2021/12/07 02:53:36;;;;;;;0.00;0.00;;;0.80;99.90;;;;;;5034444;28;20421;-65
2021/12/07 02:56:04;;;;;;;0.00;0.00;;;0.80;99.90;;;;;;5023638;28;20451;-65
2021/12/07 02:58:30;;;;;;;0.00;0.00;;;0.80;99.90;;;;;;5034265;28;20050;-66
2021/12/07 03:01:04;;;;;;;0.00;0.00;;;0.80;99.90;;;;;;5044292;28;20492;-66
2021/12/07 03:03:34;;;;;;;0.00;0.00;;;0.80;99.90;;;;;;5038791;28;20033;-65
2021/12/07 03:06:13;;;;;;;0.00;0.00;;;0.80;99.90;;;;;;5033803;28;20029;-66
2021/12/07 03:27:37;;;;;;;0.00;0.00;;;1.00;99.90;;;;;;5034247;28;19927;-66
2021/12/07 03:30:07;;;;;;;0.00;0.00;;;1.10;99.90;;;;;;5033234;28;20061;-66
2021/12/07 03:32:32;;;;;;;0.00;0.00;;;1.10;99.90;;;;;;5048414;28;20057;-66
2021/12/07 03:34:58;;;;;;;0.00;0.00;;;1.10;99.90;;;;;;5040631;28;20366;-66
2021/12/07 03:37:24;;;;;;;0.00;0.00;;;1.10;99.90;;;;;;5033473;28;20052;-66
2021/12/07 03:39:49;;;;;;;0.00;0.00;;;1.10;99.90;;;;;;5033283;28;20029;-66
2021/12/07 03:42:15;;;;;;;0.00;0.00;;;1.10;99.90;;;;;;5033420;28;20410;-66
2021/12/07 03:44:40;;;;;;;0.00;0.00;;;1.10;99.90;;;;;;5032622;28;20511;-66
2021/12/07 03:47:06;;;;;;;0.00;0.00;;;1.10;99.90;;;;;;5028251;28;20030;-66
2021/12/07 03:49:32;;;;;;;0.00;0.00;;;1.10;99.90;;;;;;5033976;28;20049;-66
2021/12/07 03:51:57;;;;;;;0.00;0.00;;;1.10;99.90;;;;;;5032720;28;20108;-66
2021/12/07 03:54:23;;;;;;;0.00;0.00;;;1.10;99.90;;;;;;5033044;28;20037;-66
2021/12/07 03:56:48;;;;;;;0.00;0.00;;;1.10;99.90;;;;;;5033302;28;20034;-66
2021/12/07 03:59:14;;;;;;;0.00;0.00;;;1.20;99.90;;;;;;5032397;28;20083;-66
2021/12/07 04:01:39;;;;;;;0.00;0.00;;;1.20;99.90;;;;;;5032455;28;20460;-66
2021/12/07 04:04:05;;;;;;;0.00;0.00;;;1.20;99.90;;;;;;5032490;28;20025;-66
2021/12/07 04:06:31;;;;;;;0.00;0.00;;;1.20;99.90;;;;;;5033074;28;20029;-66
2021/12/07 04:08:56;;;;;;;0.00;0.00;;;1.20;99.90;;;;;;5032634;28;20026;-67
2021/12/07 04:11:22;;;;;;;0.00;0.00;;;1.20;99.90;;;;;;5032443;28;20036;-66
2021/12/07 04:13:47;;;;;;;0.00;0.00;;;1.20;99.90;;;;;;5032170;28;20041;-66
2021/12/07 04:16:15;;;;;;;0.00;0.00;;;1.20;99.90;;;;;;5032752;28;20022;-67
2021/12/07 04:18:41;;;;;;;0.00;0.00;;;1.20;99.90;;;;;;5032207;28;20040;-67
2021/12/07 04:21:07;;;;;;;0.00;0.00;;;1.20;99.90;;;;;;5031779;28;20029;-67
2021/12/07 04:23:34;;;;;;;0.00;0.00;;;1.20;99.90;;;;;;5032108;28;20427;-67
2021/12/07 04:26:02;;;;;;;0.00;0.00;;;1.20;99.90;;;;;;5031840;28;20068;-67
2021/12/07 04:28:27;;;;;;;0.00;0.00;;;1.20;99.90;;;;;;5032670;28;20044;-67
2021/12/07 04:30:53;;;;;;;0.00;0.00;;;1.20;99.90;;;;;;5031673;28;20481;-67
2021/12/07 04:33:18;;;;;;;0.00;0.00;;;1.30;99.90;;;;;;5032923;28;20026;-67
2021/12/07 04:35:48;;;;;;;0.00;0.00;;;1.30;99.90;;;;;;5032618;28;20033;-67
2021/12/07 04:38:15;;;;;;;0.00;0.00;;;1.30;99.90;;;;;;5032758;28;20390;-67
2021/12/07 04:40:41;;;;;;;0.00;0.00;;;1.30;99.90;;;;;;5031739;28;20036;-67
2021/12/07 04:43:07;;;;;;;0.00;0.00;;;1.30;99.90;;;;;;5032435;28;20113;-67
2021/12/07 04:58:43;;;;;;;0.00;0.00;;;1.30;99.90;;;;;;5032683;28;20124;-67
2021/12/07 05:01:09;;;;;;;0.00;0.00;;;1.30;99.90;;;;;;5031728;28;20044;-67
2021/12/07 05:03:36;;;;;;;0.00;0.00;;;1.30;99.90;;;;;;5032148;28;20465;-67
2021/12/07 05:06:03;;;;;;;0.00;0.00;;;1.30;99.90;;;;;;5018547;28;20048;-67
2021/12/07 05:08:41;;;;;;;0.00;0.00;;;1.30;99.90;;;;;;5031998;28;20036;-67
2021/12/07 05:14:15;;;;;;;0.00;0.00;;;1.30;99.90;;;;;;5031934;28;20022;-67
2021/12/07 05:23:55;;;;;;;0.00;0.00;;;1.30;99.90;;;;;;5031896;28;20104;-67
2021/12/07 05:25:42;;;;;;;0.00;0.00;;;1.30;99.90;;;;;;5031492;28;20041;-67
2021/12/07 05:38:32;;;;;;;0.00;0.00;;;1.20;99.90;;;;;;5053283;28;20964;-67
2021/12/07 05:40:59;;;;;;;0.00;0.00;;;1.20;99.90;;;;;;5035222;28;20033;-67
2021/12/07 05:43:24;;;;;;;0.00;0.00;;;1.20;99.90;;;;;;5035426;28;20457;-67
2021/12/07 05:45:50;;;;;;;0.00;0.00;;;1.20;99.90;;;;;;5035858;28;20039;-67
2021/12/07 05:48:16;;;;;;;0.00;0.00;;;1.10;99.90;;;;;;5036051;28;20040;-67
2021/12/07 05:50:42;;;;;;;0.00;0.00;;;1.10;99.90;;;;;;5038697;28;20487;-67
2021/12/07 05:53:10;;;;;;;0.00;0.00;;;1.10;99.90;;;;;;5055794;28;20029;-67
2021/12/07 05:55:36;;;;;;;0.00;0.00;;;1.10;99.90;;;;;;5036536;28;20127;-67
2021/12/07 05:58:02;;;;;;;0.00;0.00;;;1.10;99.90;;;;;;5035463;28;20075;-67
2021/12/07 06:00:30;;;;;;;0.00;0.00;;;1.10;99.90;;;;;;5034664;28;20037;-67
2021/12/07 06:03:02;;;;;;;0.00;0.00;;;1.10;99.90;;;;;;5035621;28;20033;-67
2021/12/07 06:05:29;;;;;;;0.00;0.00;;;1.00;99.90;;;;;;5035047;28;20120;-67
2021/12/07 06:07:55;;;;;;;0.00;0.00;;;1.00;99.90;;;;;;5035436;28;20060;-67
2021/12/07 06:10:22;;;;;;;0.00;0.00;;;1.10;99.90;;;;;;5034169;28;20095;-67
2021/12/07 06:12:48;;;;;;;0.00;0.00;;;1.10;99.90;;;;;;5035166;28;20032;-68
2021/12/07 06:15:17;;;;;;;0.00;0.00;;;1.00;99.90;;;;;;5035010;28;20033;-67
2021/12/07 06:17:42;;;;;;;0.00;0.00;;;1.00;99.90;;;;;;5035432;28;20025;-67
2021/12/07 06:20:09;;;;;;;0.00;0.00;;;1.10;99.90;;;;;;5033877;28;20037;-67
2021/12/07 06:22:34;;;;;;;0.00;0.00;;;1.10;99.90;;;;;;5034776;28;20030;-67
2021/12/07 06:25:00;;;;;;;0.00;0.00;;;1.10;99.90;;;;;;5033499;28;20044;-67
2021/12/07 06:27:25;;;;;;;0.00;0.00;;;1.10;99.90;;;;;;5031340;28;20033;-67
2021/12/07 06:29:51;;;;;;;0.00;0.00;;;1.10;99.90;;;;;;5029084;28;20036;-67
2021/12/07 06:32:16;;;;;;;0.00;0.00;;;1.10;99.90;;;;;;5033297;28;20029;-67
2021/12/07 06:34:42;;;;;;;0.00;0.00;;;1.10;99.90;;;;;;5027614;28;20083;-67
2021/12/07 06:37:08;;;;;;;0.00;0.00;;;1.10;99.90;;;;;;5024314;28;20378;-67
2021/12/07 06:39:34;;;;;;;0.00;0.00;;;1.20;99.90;;;;;;5033522;28;20585;-67
2021/12/07 06:42:00;;;;;;;0.00;0.00;;;1.20;99.90;;;;;;5032449;28;20033;-67
2021/12/07 06:44:26;;;;;;;0.00;0.00;;;1.20;99.90;;;;;;5033018;28;20512;-67
2021/12/07 06:46:52;;;;;;;0.00;0.00;;;1.20;99.90;;;;;;5033137;28;20026;-67
2021/12/07 06:49:19;;;;;;;0.00;0.00;;;1.20;99.90;;;;;;5032765;28;20060;-67
2021/12/07 06:51:46;;;;;;;0.00;0.00;;;1.20;99.90;;;;;;5035178;28;20033;-67
2021/12/07 06:54:12;;;;;;;0.00;0.00;;;1.20;99.90;;;;;;5032080;28;20086;-67
2021/12/07 06:56:37;;;;;;;0.00;0.00;;;1.20;99.90;;;;;;5033140;28;20029;-67
2021/12/07 06:59:04;;;;;;;0.00;0.00;;;1.20;99.90;;;;;;5032871;28;20032;-67
2021/12/07 07:01:30;;;;;;;0.00;0.00;;;1.20;99.90;;;;;;5031857;28;20021;-67
2021/12/07 07:03:55;;;;;;;0.00;0.00;;;1.20;99.90;;;;;;5032076;28;20071;-67
2021/12/07 07:06:21;;;;;;;0.00;0.00;;;1.20;99.90;;;;;;5032740;28;20435;-67
2021/12/07 07:08:47;;;;;;;0.00;0.00;;;1.20;99.90;;;;;;5032629;28;20022;-67
2021/12/07 07:11:12;;;;;;;0.00;0.00;;;1.20;99.90;;;;;;5031525;28;20095;-67
2021/12/07 07:13:38;;;;;;;0.00;0.00;;;1.20;99.90;;;;;;5032291;28;20044;-67
2021/12/07 07:16:04;;;;;;;0.00;0.00;;;1.20;99.90;;;;;;5032715;28;20051;-67
2021/12/07 07:18:29;;;;;;;0.00;0.00;;;1.30;99.90;;;;;;5031940;28;20029;-67
2021/12/07 07:20:55;;;;;;;0.00;0.00;;;1.30;99.90;;;;;;5027112;28;20037;-67
2021/12/07 07:23:23;;;;;;;0.00;0.00;;;1.30;99.90;;;;;;5031784;28;20041;-67
2021/12/07 07:25:48;;;;;;;0.00;0.00;;;1.30;99.90;;;;;;4997733;28;1030584;-67
2021/12/07 07:28:14;;;;;;;0.00;0.00;;;1.30;99.90;;;;;;5032855;28;20037;-67
2021/12/07 07:30:40;;;;;;;0.00;0.00;;;1.30;99.90;;;;;;5032572;28;20108;-67
2021/12/07 07:33:05;;;;;;;0.00;0.00;;;1.30;99.90;;;;;;5039656;28;20025;-67
2021/12/07 07:35:31;;;;;;;0.00;0.00;;;1.30;99.90;;;;;;5035067;28;20029;-67
2021/12/07 07:37:56;;;;;;;0.00;0.00;;;1.30;99.90;;;;;;5033327;28;20491;-67
2021/12/07 07:40:23;;;;;;;0.00;0.00;;;1.30;99.90;;;;;;5032095;28;20026;-67
2021/12/07 07:42:49;;;;;;;0.00;0.00;;;1.30;99.90;;;;;;5033118;28;20064;-67
2021/12/07 07:45:15;;;;;;;0.00;0.00;;;1.30;99.90;;;;;;5035303;28;20516;-67
2021/12/07 07:47:41;;;;;;;0.00;0.00;;;1.40;99.90;;;;;;5032688;28;20067;-67
2021/12/07 07:50:09;;;;;;;0.00;0.00;;;1.40;99.90;;;;;;5032304;28;20439;-67
2021/12/07 07:52:35;;;;;;;0.00;0.00;;;1.40;99.90;;;;;;5037001;28;20052;-67
2021/12/07 07:55:01;;;;;;;0.00;0.00;;;1.40;99.90;;;;;;5031325;28;20088;-67
2021/12/07 07:57:28;;;;;;;0.00;0.00;;;1.50;99.90;;;;;;5035704;28;20045;-67
2021/12/07 07:59:53;;;;;;;0.00;0.00;;;1.50;99.90;;;;;;5033135;28;20025;-68
2021/12/07 08:02:19;;;;;;;0.00;0.00;;;1.50;99.90;;;;;;5031728;28;20408;-67
2021/12/07 08:04:44;;;;;;;0.00;0.00;;;1.50;99.90;;;;;;5032883;28;20044;-68
2021/12/07 08:07:10;;;;;;;0.00;0.00;;;1.60;99.90;;;;;;5031746;28;20029;-67
2021/12/07 08:09:35;;;;;;;0.00;0.00;;;1.50;99.90;;;;;;5037176;28;20025;-68
2021/12/07 08:12:01;;;;;;;0.00;0.00;;;1.50;99.90;;;;;;5031774;28;20060;-68
2021/12/07 08:14:27;;;;;;;0.00;0.00;;;1.60;99.90;;;;;;5033138;28;20203;-68
2021/12/07 08:16:53;;;;;;;0.00;0.00;;;1.60;99.90;;;;;;5032652;28;20037;-68
2021/12/07 08:19:19;;;;;;;0.00;0.00;;;1.60;99.90;;;;;;5032074;28;20820;-68
2021/12/07 08:21:44;;;;;;;0.00;0.00;;;1.60;99.90;;;;;;5031154;28;20112;-68
2021/12/07 08:24:10;;;;;;;0.00;0.00;;;1.60;99.90;;;;;;5035041;28;20045;-68
2021/12/07 08:26:35;;;;;;;0.00;0.00;;;1.60;99.90;;;;;;5035174;28;20113;-68
2021/12/07 08:29:01;;;;;;;0.00;0.00;;;1.60;99.90;;;;;;5032984;28;20034;-68
2021/12/07 08:31:28;;;;;;;0.00;0.00;;;1.60;99.90;;;;;;5031595;28;20040;-68
2021/12/07 08:33:54;;;;;;;0.00;0.00;;;1.60;99.90;;;;;;5024868;28;20017;-68
2021/12/07 08:36:20;;;;;;;0.00;0.00;;;1.60;99.90;;;;;;5026857;28;20037;-68
2021/12/07 08:38:46;;;;;;;0.00;0.00;;;1.60;99.90;;;;;;5033898;28;20117;-69
2021/12/07 08:41:14;;;;;;;0.00;0.00;;;1.70;99.90;;;;;;5030974;28;20467;-69
2021/12/07 08:43:41;;;;;;;0.00;0.00;;;1.60;99.90;;;;;;5032154;28;20025;-68
2021/12/07 08:46:08;;;;;;;0.00;0.00;;;1.60;99.90;;;;;;5032436;28;20056;-69
2021/12/07 08:48:34;;;;;;;0.00;0.00;;;1.60;99.90;;;;;;5032180;28;20044;-69
2021/12/07 08:51:00;;;;;;;0.00;0.00;;;1.70;99.90;;;;;;5031413;28;20033;-69
2021/12/07 08:53:27;;;;;;;0.00;0.00;;;1.70;99.90;;;;;;5032671;28;20504;-69
2021/12/07 09:01:25;;;;;;;0.00;0.00;;;1.70;99.90;;;;;;5031771;28;20056;-68
2021/12/07 09:03:52;;;;;;;0.00;0.00;;;1.70;99.90;;;;;;5032395;28;20034;-68
2021/12/07 09:06:18;;;;;;;0.00;0.00;;;1.70;99.90;;;;;;5032370;28;20044;-68
2021/12/07 09:08:44;;;;;;;0.00;0.00;;;1.70;99.90;;;;;;5032063;28;20120;-69
2021/12/07 09:11:13;;;;;;;0.00;0.00;;;1.70;99.90;;;;;;5031726;28;20072;-69
2021/12/07 09:13:39;;;;;;;0.00;0.00;;;1.70;99.90;;;;;;5031653;28;20025;-68
2021/12/07 09:16:06;;;;;;;0.00;0.00;;;1.80;99.90;;;;;;5031904;28;20064;-68
2021/12/07 09:18:32;;;;;;;0.00;0.00;;;1.80;99.90;;;;;;5031964;28;20400;-68
2021/12/07 09:20:58;;;;;;;0.00;0.00;;;1.80;99.90;;;;;;5031413;28;20042;-68
2021/12/07 09:23:25;;;;;;;0.00;0.00;;;1.90;99.90;;;;;;5031923;28;20419;-68
2021/12/07 09:25:51;;;;;;;0.00;0.00;;;1.90;99.90;;;;;;5025341;28;20041;-68
2021/12/07 09:28:17;;;;;;;0.00;0.00;;;1.90;99.90;;;;;;5032457;28;20029;-69
2021/12/07 09:30:43;;;;;;;0.00;0.00;;;2.00;99.90;;;;;;5051154;28;20037;-68
2021/12/07 09:33:09;;;;;;;0.00;0.00;;;2.10;99.90;;;;;;5052027;28;20026;-68
2021/12/07 09:35:35;;;;;;;0.00;0.00;;;2.10;99.90;;;;;;5035723;28;20119;-69
2021/12/07 09:38:02;;;;;;;0.00;0.00;;;2.20;99.90;;;;;;5033129;28;20044;-69
2021/12/07 09:40:29;;;;;;;0.00;0.00;;;2.30;99.90;;;;;;5043651;28;20033;-69
2021/12/07 09:42:56;;;;;;;0.00;0.00;;;2.30;99.90;;;;;;5018848;28;20030;-68
2021/12/07 09:45:25;;;;;;;0.00;0.00;;;2.30;99.90;;;;;;5031562;28;20025;-69
2021/12/07 09:47:51;;;;;;;0.00;0.00;;;2.30;99.90;;;;;;5032049;28;20060;-68
2021/12/07 09:50:19;;;;;;;0.00;0.00;;;2.40;99.90;;;;;;5031074;28;20069;-68
2021/12/07 09:52:47;;;;;;;0.00;0.00;;;2.40;99.90;;;;;;5031933;28;20030;-68
2021/12/07 09:55:13;;;;;;;0.00;0.00;;;2.40;99.90;;;;;;5031721;28;20038;-68
2021/12/07 09:57:38;;;;;;;0.00;0.00;;;2.40;99.90;;;;;;5031565;28;20029;-68
2021/12/07 10:00:08;;;;;;;0.00;0.00;;;2.40;99.90;;;;;;5045760;28;20022;-68
2021/12/07 10:02:33;;;;;;;0.00;0.00;;;2.40;99.90;;;;;;5032370;28;20040;-68
2021/12/07 10:04:59;;;;;;;0.00;0.00;;;2.50;99.90;;;;;;5031419;28;20029;-69
2021/12/07 10:07:24;;;;;;;0.00;0.00;;;2.50;99.90;;;;;;5039918;28;20051;-69
2021/12/07 10:09:50;;;;;;;0.00;0.00;;;2.60;99.90;;;;;;5050878;28;20048;-68
2021/12/07 10:12:23;;;;;;;0.00;0.00;;;2.70;99.90;;;;;;5050143;28;20029;-68
2021/12/07 10:14:49;;;;;;;0.00;0.00;;;2.80;99.90;;;;;;5031298;28;20033;-68
2021/12/07 10:17:24;;;;;;;0.00;0.00;;;2.80;99.90;;;;;;5031515;28;20037;-69
2021/12/07 10:19:49;;;;;;;0.00;0.00;;;2.90;99.90;;;;;;5045717;28;20032;-68
2021/12/07 10:22:20;;;;;;;0.00;0.00;;;2.90;99.90;;;;;;5034680;28;20030;-68
2021/12/07 10:24:50;;;;;;;0.00;0.00;;;3.00;99.90;;;;;;5034934;28;20087;-68
2021/12/07 10:27:37;;;;;;;0.00;0.00;;;3.00;99.90;;;;;;5034948;28;20033;-68
2021/12/07 10:30:09;;;;;;;0.00;0.00;;;3.10;99.90;;;;;;5039882;28;20519;-68
2021/12/07 10:32:41;;;;;;;0.00;0.00;;;3.10;99.90;;;;;;5055026;28;20052;-68
2021/12/07 10:35:27;;;;;;;0.00;0.00;;;3.20;99.90;;;;;;5041939;28;20060;-69
2021/12/07 10:38:07;;;;;;;0.00;0.00;;;3.40;99.90;;;;;;5037440;28;20029;-68
2021/12/07 10:40:33;;;;;;;0.00;0.00;;;3.60;99.90;;;;;;5034128;28;20021;-69
2021/12/07 10:42:59;;;;;;;0.00;0.00;;;3.70;99.90;;;;;;5034869;28;20122;-69
2021/12/07 10:45:28;;;;;;;0.00;0.00;;;3.80;99.90;;;;;;5046866;28;20098;-69
2021/12/07 10:47:53;;;;;;;0.00;0.00;;;3.90;99.90;;;;;;5046190;28;20121;-69
2021/12/07 10:50:19;;;;;;;0.00;0.00;;;3.90;99.90;;;;;;5034024;28;20472;-68
2021/12/07 10:52:45;;;;;;;0.00;0.00;;;4.10;99.90;;;;;;5034823;28;20026;-68
2021/12/07 10:55:15;;;;;;;0.00;0.00;;;4.00;99.90;;;;;;5034529;28;20057;-68
2021/12/07 10:57:48;;;;;;;0.00;0.00;;;4.00;99.90;;;;;;5034594;28;20503;-68
2021/12/07 11:00:37;;;;;;;0.00;0.00;;;4.10;99.90;;;;;;5033649;28;20021;-69
2021/12/07 11:03:20;;;;;;;0.00;0.00;;;4.00;99.90;;;;;;5034658;28;20029;-69
2021/12/07 11:05:50;;;;;;;0.00;0.00;;;4.00;99.90;;;;;;5034668;28;20084;-68
2021/12/07 11:08:19;;;;;;;0.00;0.00;;;4.10;99.90;;;;;;5035291;28;20120;-68
2021/12/07 11:10:48;;;;;;;0.00;0.00;;;4.10;99.90;;;;;;5053381;28;20032;-68
2021/12/07 11:13:35;;;;;;;0.00;0.00;;;4.10;99.90;;;;;;5054294;28;20078;-68
2021/12/07 11:16:03;;;;;;;0.00;0.00;;;4.00;99.90;;;;;;5054207;28;20041;-68
2021/12/07 11:18:38;;;;;;;0.00;0.00;;;4.00;99.90;;;;;;5044496;28;20061;-68
2021/12/07 11:21:08;;;;;;;0.00;0.00;;;4.10;99.90;;;;;;5033481;28;20040;-68
2021/12/07 11:23:40;;;;;;;0.00;0.00;;;4.00;99.90;;;;;;5041873;28;20030;-68
2021/12/07 11:31:28;;;;;;;0.00;0.00;;;3.90;99.90;;;;;;5036741;28;20037;-68
2021/12/07 11:34:15;;;;;;;0.00;0.00;;;4.00;99.90;;;;;;5036348;28;20547;-68
2021/12/07 11:36:55;;;;;;;0.00;0.00;;;4.10;99.90;;;;;;5032964;28;20484;-68
2021/12/07 11:39:32;;;;;;;0.00;0.00;;;4.00;99.90;;;;;;5032800;28;20025;-68
2021/12/07 11:42:29;;;;;;;0.00;0.00;;;4.10;99.90;;;;;;5032440;28;20029;-68
2021/12/07 11:44:57;;;;;;;0.00;0.00;;;4.10;99.90;;;;;;5033820;28;20057;-68
2021/12/07 11:47:26;;;;;;;0.00;0.00;;;4.20;99.90;;;;;;5032914;28;20044;-67
2021/12/07 11:49:52;;;;;;;0.00;0.00;;;4.20;99.90;;;;;;5033213;28;20032;-68
2021/12/07 11:52:18;;;;;;;0.00;0.00;;;4.20;99.90;;;;;;5032125;28;20485;-68
2021/12/07 11:54:43;;;;;;;0.00;0.00;;;4.10;99.90;;;;;;5032615;28;20080;-68
2021/12/07 11:57:14;;;;;;;0.00;0.00;;;4.10;99.90;;;;;;5032973;28;20083;-68
2021/12/07 11:59:41;;;;;;;0.00;0.00;;;4.10;99.90;;;;;;5033189;28;20045;-68
2021/12/07 12:02:07;;;;;;;0.00;0.00;;;4.10;99.90;;;;;;5031674;28;20510;-68
2021/12/07 12:04:33;;;;;;;0.00;0.00;;;4.20;99.90;;;;;;5031826;28;20037;-68
2021/12/07 12:07:00;;;;;;;0.00;0.00;;;4.30;99.90;;;;;;5032322;28;20042;-68
2021/12/07 12:09:27;;;;;;;0.00;0.00;;;4.20;99.90;;;;;;5032039;28;20538;-68
2021/12/07 12:12:25;;;;;;;0.00;0.00;;;4.20;99.90;;;;;;5032438;28;20029;-68
2021/12/07 12:15:06;;;;;;;0.00;0.00;;;4.30;99.90;;;;;;5032691;28;20497;-68
2021/12/07 12:17:49;;;;;;;0.00;0.00;;;4.30;99.90;;;;;;5033145;28;20116;-68
2021/12/07 12:20:33;;;;;;;0.00;0.00;;;4.30;99.90;;;;;;5032223;28;20033;-68
2021/12/07 12:23:10;;;;;;;0.00;0.00;;;4.50;99.90;;;;;;5045906;28;20495;-68
2021/12/07 12:25:36;;;;;;;0.00;0.00;;;4.60;99.90;;;;;;5046039;28;20029;-68
2021/12/07 12:28:03;;;;;;;0.00;0.00;;;4.50;99.90;;;;;;5032631;28;20034;-69
2021/12/07 12:30:39;;;;;;;0.00;0.00;;;4.60;99.90;;;;;;5043684;28;20033;-68
2021/12/07 12:33:09;;;;;;;0.00;0.00;;;4.70;99.90;;;;;;5033293;28;20384;-68
2021/12/07 12:35:51;;;;;;;0.00;0.00;;;4.60;99.90;;;;;;5038626;28;20468;-68
2021/12/07 12:38:25;;;;;;;0.00;0.00;;;4.70;99.90;;;;;;5052731;28;20483;-68
2021/12/07 12:40:57;;;;;;;0.00;0.00;;;4.70;99.90;;;;;;5051754;28;20033;-68
2021/12/07 12:43:37;;;;;;;0.00;0.00;;;4.80;99.90;;;;;;5052479;28;20037;-69
2021/12/07 12:46:04;;;;;;;0.00;0.00;;;4.80;99.90;;;;;;5034811;28;20423;-69
2021/12/07 12:48:32;;;;;;;0.00;0.00;;;4.70;99.90;;;;;;5032318;28;20083;-68
2021/12/07 12:50:58;;;;;;;0.00;0.00;;;4.40;99.90;;;;;;5032005;28;20057;-68
2021/12/07 12:53:34;;;;;;;0.00;0.00;;;4.50;99.90;;;;;;5032557;28;20480;-68
2021/12/07 12:56:09;;;;;;;0.00;0.00;;;4.40;99.90;;;;;;5032392;28;20060;-69
2021/12/07 12:58:41;;;;;;;0.00;0.00;;;4.30;99.90;;;;;;5032404;28;20462;-69
2021/12/07 13:01:27;;;;;;;0.00;0.00;;;4.40;99.90;;;;;;5031498;28;20409;-69
2021/12/07 13:04:19;;;;;;;0.00;0.00;;;4.40;99.90;;;;;;5032439;28;20035;-68
2021/12/07 13:07:25;;;;;;;0.00;0.00;;;4.50;99.90;;;;;;5035106;28;20031;-69
2021/12/07 13:09:56;;;;;;;0.00;0.00;;;4.50;99.90;;;;;;5031982;28;20491;-68
2021/12/07 13:12:31;;;;;;;0.00;0.00;;;4.50;99.90;;;;;;5031815;28;20033;-69
2021/12/07 13:15:08;;;;;;;0.00;0.00;;;4.50;99.90;;;;;;5032115;28;20056;-68
2021/12/07 13:17:38;;;;;;;0.00;0.00;;;4.40;99.90;;;;;;5031965;28;20481;-68
2021/12/07 13:20:15;;;;;;;0.00;0.00;;;4.30;99.90;;;;;;5030644;28;20391;-69
2021/12/07 13:22:46;;;;;;;0.00;0.00;;;4.30;99.90;;;;;;5026009;28;20128;-69
2021/12/07 13:25:23;;;;;;;0.00;0.00;;;4.30;99.90;;;;;;5032437;28;20042;-69
2021/12/07 13:28:05;;;;;;;0.00;0.00;;;4.30;99.90;;;;;;5031829;28;20040;-69
2021/12/07 13:30:48;;;;;;;0.00;0.00;;;4.40;99.90;;;;;;5031645;28;20025;-68
2021/12/07 13:33:39;;;;;;;0.00;0.00;;;4.30;99.90;;;;;;5039727;28;20044;-69
2021/12/07 13:36:35;;;;;;;0.00;0.00;;;4.40;99.90;;;;;;5029510;28;20048;-69
2021/12/07 13:39:10;;;;;;;0.00;0.00;;;4.40;99.90;;;;;;5031951;28;20037;-69
2021/12/07 13:41:47;;;;;;;0.00;0.00;;;4.40;99.90;;;;;;5031330;28;20442;-69
2021/12/07 13:44:14;;;;;;;0.00;0.00;;;4.30;99.90;;;;;;5031830;28;20029;-69
2021/12/07 13:46:40;;;;;;;0.00;0.00;;;4.30;99.90;;;;;;5042184;28;20044;-68
2021/12/07 13:49:10;;;;;;;0.00;0.00;;;4.30;99.90;;;;;;5051467;28;20037;-69
2021/12/07 13:51:37;;;;;;;0.00;0.00;;;4.20;99.90;;;;;;5051351;28;20025;-68
2021/12/07 13:54:05;;;;;;;0.00;0.00;;;4.10;99.90;;;;;;5053854;28;20029;-69
2021/12/07 13:56:36;;;;;;;0.00;0.00;;;4.00;99.90;;;;;;5051826;28;20108;-69
2021/12/07 13:59:07;;;;;;;0.00;0.00;;;4.00;99.90;;;;;;5035697;28;20044;-69
2021/12/07 14:01:35;;;;;;;0.00;0.00;;;4.00;99.90;;;;;;5034711;28;20039;-69
2021/12/07 14:04:03;;;;;;;0.00;0.00;;;4.00;99.90;;;;;;5035669;28;20071;-69
2021/12/07 14:06:30;;;;;;;0.00;0.00;;;4.10;99.90;;;;;;5042572;28;20037;-68
2021/12/07 14:09:22;;;;;;;0.00;0.00;;;4.00;99.90;;;;;;5035566;28;20161;-68
2021/12/07 14:11:56;;;;;;;0.00;0.00;;;4.00;99.90;;;;;;5033009;28;20037;-69
2021/12/07 14:14:23;;;;;;;0.00;0.00;;;3.90;99.90;;;;;;5035036;28;20037;-68
2021/12/07 14:16:48;;;;;;;0.00;0.00;;;3.90;99.90;;;;;;5035388;28;20029;-69
2021/12/07 14:19:15;;;;;;;0.00;0.00;;;3.90;99.90;;;;;;5035090;28;20052;-68
2021/12/07 14:21:41;;;;;;;0.00;0.00;;;3.90;99.90;;;;;;5034499;28;20103;-69
2021/12/07 14:24:15;;;;;;;0.00;0.00;;;3.80;99.90;;;;;;5035133;28;20037;-69
2021/12/07 14:26:41;;;;;;;0.00;0.00;;;3.80;99.90;;;;;;5035401;28;20091;-69
2021/12/07 14:29:08;;;;;;;0.00;0.00;;;3.80;99.90;;;;;;5034972;28;20056;-69
2021/12/07 14:31:35;;;;;;;0.00;0.00;;;3.80;99.90;;;;;;5034521;28;20110;-69
2021/12/07 14:34:04;;;;;;;0.00;0.00;;;3.80;99.90;;;;;;5038188;28;20064;-68
2021/12/07 14:36:55;;;;;;;0.00;0.00;;;3.70;99.90;;;;;;5054919;28;20422;-69
2021/12/07 14:39:25;;;;;;;0.00;0.00;;;3.80;99.90;;;;;;5054601;28;20127;-69
2021/12/07 14:41:56;;;;;;;0.00;0.00;;;3.70;99.90;;;;;;5039510;28;20416;-69
2021/12/07 14:44:27;;;;;;;0.00;0.00;;;3.70;99.90;;;;;;5037508;28;20032;-69
2021/12/07 14:46:56;;;;;;;0.00;0.00;;;3.70;99.90;;;;;;5048168;28;20029;-69
2021/12/07 14:49:25;;;;;;;0.00;0.00;;;3.80;99.90;;;;;;5034385;28;20033;-69
2021/12/07 14:51:51;;;;;;;0.00;0.00;;;3.80;99.90;;;;;;5034171;28;20025;-69
2021/12/07 14:54:18;;;;;;;0.00;0.00;;;3.80;99.90;;;;;;5041425;28;20133;-68